This is the latest recevied weather packets stored in our database for station/object KC0QBU-13. If no packets are shown the sender has not sent any weather packets the latest 10 day(s).
| Time | Temp. | Humidity | Pressure | Rain* | Wind** | Luminosity | Snow |
|---|---|---|---|---|---|---|---|
| 1777685704 | 14.44° C | 39% | 1017.9 hPa | 0 mm | - | - | - |
| 1777683604 | 15.56° C | 36% | 1017.4 hPa | 0 mm | - | - | - |
| 1777680903 | 16.67° C | 33% | 1016.8 hPa | 0 mm | - | - | - |
| 1777680604 | 16.67° C | 34% | 1016.8 hPa | 0 mm | - | - | - |
| 1777677604 | 17.22° C | 31% | 1016.8 hPa | 0 mm | - | - | - |
| 1777677303 | 17.22° C | 30% | 1016.7 hPa | 0 mm | - | - | - |
| 1777676703 | 17.78° C | 33% | 1016.7 hPa | 0 mm | - | - | - |
| 1777674904 | 17.78° C | 33% | 1016.7 hPa | 0 mm | - | - | - |
| 1777671603 | 17.22° C | 35% | 1017.1 hPa | 0 mm | - | - | - |
| 1777670703 | 17.22° C | 35% | 1017.4 hPa | 0 mm | - | - | - |
| 1777668604 | 17.22° C | 33% | 1018 hPa | 0 mm | - | - | - |
| 1777665904 | 18.33° C | 34% | 1018.5 hPa | 0 mm | - | - | - |
| 1777663203 | 17.22° C | 36% | 1019 hPa | 0 mm | - | - | - |
| 1777662004 | 17.22° C | 33% | 1019.1 hPa | 0 mm | - | - | - |
| 1777660504 | 17.78° C | 34% | 1019.1 hPa | 0 mm | - | - | - |
| 1777659304 | 17.78° C | 34% | 1019.3 hPa | 0 mm | - | - | - |
| 1777658703 | 17.22° C | 34% | 1019.3 hPa | 0 mm | - | - | - |
| 1777656003 | 17.22° C | 38% | 1019.7 hPa | 0 mm | - | - | - |
| 1777653903 | 16.67° C | 40% | 1019.8 hPa | 0 mm | - | - | - |
| 1777652703 | 16.11° C | 36% | 1019.7 hPa | 0 mm | - | - | - |
| 1777648503 | 14.44° C | 37% | 1019.6 hPa | 0 mm | - | - | - |
| 1777647004 | 13.33° C | 40% | 1019.4 hPa | 0 mm | - | - | - |
| 1777646404 | 12.78° C | 45% | 1019.4 hPa | 0 mm | - | - | - |
| 1777644604 | 11.11° C | 51% | 1019.7 hPa | 0 mm | - | - | - |
| 1777642504 | 10° C | 57% | 1019.8 hPa | 0 mm | - | - | - |
* Rain latest hour (hover to see other rain measurements)
** Current wind speed in m/s (hover to see current wind gust speed)